createdAt,value
2019-04-24T00:01:17.724Z,6.60
2019-04-24T00:03:52.550Z,8.00
2019-04-24T00:06:20.258Z,6.63
2019-04-24T00:09:07.846Z,6.47
2019-04-24T00:12:00.274Z,6.97
2019-04-24T00:17:00.443Z,7.03
2019-04-24T00:22:02.734Z,8.27
2019-04-24T00:24:38.714Z,10.13
2019-04-24T00:26:59.342Z,6.73
2019-04-24T00:29:42.789Z,7.33
2019-04-24T00:37:09.950Z,8.97
2019-04-24T00:44:26.606Z,10.63
2019-04-24T00:47:11.183Z,6.10
2019-04-24T00:49:33.831Z,6.13
2019-04-24T00:52:04.109Z,6.80
2019-04-24T00:54:29.908Z,8.53
2019-04-24T00:57:24.795Z,6.17
2019-04-24T00:59:36.525Z,6.30
2019-04-24T01:07:50.220Z,8.13
2019-04-24T01:10:25.102Z,7.37
2019-04-24T01:17:52.035Z,6.57
2019-04-24T01:28:11.375Z,5.43
2019-04-24T01:31:03.187Z,5.97
2019-04-24T01:33:26.032Z,5.97
2019-04-24T01:38:41.134Z,5.50
2019-04-24T01:43:57.095Z,6.20
2019-04-24T01:46:16.997Z,5.53
2019-04-24T01:48:45.903Z,6.80
2019-04-24T01:51:21.518Z,5.50
2019-04-24T01:53:46.929Z,6.10
2019-04-24T01:56:33.823Z,6.43
2019-04-24T01:58:56.064Z,5.40
2019-04-24T02:03:57.220Z,6.70
2019-04-24T02:06:20.679Z,5.57
2019-04-24T02:08:59.443Z,6.57
2019-04-24T02:14:31.576Z,6.43
2019-04-24T02:17:01.142Z,7.40
2019-04-24T02:22:04.675Z,5.80
2019-04-24T02:24:43.725Z,5.93
2019-04-24T02:26:55.512Z,9.53
2019-04-24T02:32:35.468Z,5.53
2019-04-24T02:35:00.714Z,6.30
2019-04-24T02:37:47.605Z,5.63
2019-04-24T02:40:29.134Z,8.10
2019-04-24T02:43:06.414Z,6.27
2019-04-24T02:45:38.865Z,6.17
2019-04-24T02:48:12.998Z,8.63
2019-04-24T02:50:33.276Z,8.20
2019-04-24T03:00:53.337Z,6.90
2019-04-24T03:08:53.863Z,7.17
2019-04-24T03:14:24.541Z,7.43
2019-04-24T03:24:48.483Z,6.20
2019-04-24T03:29:52.332Z,7.57
2019-04-24T03:43:12.047Z,7.30
2019-04-24T03:47:37.028Z,8.00
2019-04-24T03:50:06.103Z,8.07
2019-04-24T03:52:36.820Z,8.03
2019-04-24T04:03:30.494Z,7.87
2019-04-24T04:05:40.244Z,10.63
2019-04-24T04:18:41.837Z,10.97
2019-04-24T04:21:08.190Z,8.83
2019-04-24T04:32:26.856Z,7.23
2019-04-24T04:34:52.087Z,7.07
2019-04-24T04:47:39.272Z,7.67
2019-04-24T04:58:52.280Z,6.50
2019-04-24T05:01:40.683Z,7.67
2019-04-24T05:04:37.728Z,7.17
2019-04-24T05:07:09.554Z,5.93
2019-04-24T05:22:00.027Z,6.93
2019-04-24T05:24:17.691Z,6.73
2019-04-24T05:27:15.947Z,9.37
2019-04-24T05:32:22.288Z,6.50
2019-04-24T05:37:48.901Z,7.40
2019-04-24T05:40:08.369Z,5.80
2019-04-24T05:45:17.094Z,7.77
2019-04-24T05:47:59.085Z,6.07
2019-04-24T05:51:13.586Z,6.40
2019-04-24T06:12:16.408Z,8.03
2019-04-24T06:15:08.940Z,5.83
2019-04-24T06:20:59.428Z,6.27
2019-04-24T06:23:50.304Z,8.13
2019-04-24T06:26:14.377Z,5.23
2019-04-24T06:29:14.643Z,6.33
2019-04-24T06:31:23.301Z,8.10
2019-04-24T06:33:58.020Z,5.27
2019-04-24T06:47:42.027Z,6.63
2019-04-24T06:49:36.969Z,6.00
2019-04-24T06:54:42.319Z,4.97
2019-04-24T07:03:00.281Z,5.23
2019-04-24T07:06:06.686Z,6.10
2019-04-24T07:08:36.896Z,6.27
2019-04-24T07:12:09.578Z,4.90
2019-04-24T07:14:34.116Z,6.13
2019-04-24T07:17:20.296Z,4.67
2019-04-24T07:19:47.329Z,6.30
2019-04-24T07:22:27.314Z,5.07
2019-04-24T07:27:55.617Z,6.13
2019-04-24T07:36:28.999Z,5.60
2019-04-24T07:38:36.360Z,5.47
2019-04-24T07:44:09.150Z,6.90
2019-04-24T07:46:38.326Z,9.50
2019-04-24T07:54:16.052Z,6.57
2019-04-24T07:57:09.103Z,6.27
2019-04-24T08:07:39.529Z,7.13
2019-04-24T08:10:42.271Z,6.60
2019-04-24T08:13:31.021Z,6.73
2019-04-24T08:18:35.270Z,8.33
2019-04-24T08:26:04.376Z,8.80
2019-04-24T08:28:46.177Z,10.87
2019-04-24T08:31:44.391Z,11.87
2019-04-24T08:36:31.866Z,9.20
2019-04-24T08:42:11.847Z,10.83
2019-04-24T08:44:37.997Z,11.77
2019-04-24T08:47:05.470Z,9.33
2019-04-24T08:49:42.234Z,12.10
2019-04-24T08:52:43.302Z,9.93
2019-04-24T08:54:47.879Z,9.87
2019-04-24T09:00:09.541Z,10.13
2019-04-24T09:03:15.677Z,10.97
2019-04-24T09:05:42.397Z,10.47
2019-04-24T09:11:02.383Z,10.73
2019-04-24T09:16:41.063Z,12.67
2019-04-24T09:27:19.538Z,11.87
2019-04-24T09:35:02.660Z,14.00
2019-04-24T09:42:00.206Z,11.20
2019-04-24T09:46:57.087Z,13.67
2019-04-24T09:49:30.370Z,11.50
2019-04-24T09:52:00.802Z,12.37
2019-04-24T09:59:41.775Z,11.63
2019-04-24T10:02:34.688Z,11.13
2019-04-24T10:05:07.860Z,9.87
2019-04-24T10:07:41.064Z,10.37
2019-04-24T10:10:17.124Z,9.20
2019-04-24T10:13:01.290Z,11.50
2019-04-24T10:15:32.504Z,13.47
2019-04-24T10:18:04.672Z,10.43
2019-04-24T10:20:42.436Z,10.63
2019-04-24T10:23:40.672Z,9.30
2019-04-24T10:26:07.170Z,11.50
2019-04-24T10:34:23.217Z,8.00
2019-04-24T10:37:19.369Z,7.13
2019-04-24T10:40:09.298Z,6.70
2019-04-24T10:45:28.401Z,5.43
2019-04-24T10:48:04.991Z,4.97
2019-04-24T10:53:42.829Z,3.57
2019-04-24T10:56:16.793Z,5.27
2019-04-24T10:58:42.186Z,5.90
2019-04-24T11:02:07.643Z,3.37
2019-04-24T11:04:34.942Z,4.27
2019-04-24T11:15:42.355Z,4.60
2019-04-24T11:18:09.922Z,4.07
2019-04-24T11:21:14.205Z,4.60
2019-04-24T11:23:28.030Z,4.43
2019-04-24T11:32:01.012Z,4.33
2019-04-24T11:37:18.809Z,6.70
2019-04-24T11:42:37.164Z,3.63
2019-04-24T11:45:32.192Z,4.40
2019-04-24T11:48:04.633Z,4.80
2019-04-24T11:53:17.934Z,4.10
2019-04-24T11:56:01.880Z,4.30
2019-04-24T12:01:25.383Z,4.77
2019-04-24T12:09:09.853Z,6.53
2019-04-24T12:11:40.028Z,4.90
2019-04-24T12:14:40.168Z,4.00
2019-04-24T12:17:07.942Z,4.43
2019-04-24T12:20:03.929Z,4.43
2019-04-24T12:24:58.646Z,7.27
2019-04-24T12:27:40.789Z,5.30
2019-04-24T12:35:30.935Z,6.67
2019-04-24T12:38:12.416Z,6.47
2019-04-24T12:40:56.018Z,5.30
2019-04-24T12:43:36.882Z,5.23
2019-04-24T12:48:40.906Z,6.77
2019-04-24T12:53:55.381Z,5.10
2019-04-24T12:56:43.564Z,6.87
2019-04-24T13:01:58.938Z,6.67
2019-04-24T13:04:53.125Z,10.00
2019-04-24T13:07:07.365Z,8.77
2019-04-24T13:09:47.576Z,8.57
2019-04-24T13:12:44.393Z,7.27
2019-04-24T13:15:24.759Z,7.83
2019-04-24T13:18:09.089Z,9.83
2019-04-24T13:20:12.197Z,12.03
2019-04-24T13:22:44.960Z,9.43
2019-04-24T13:25:43.442Z,8.83
2019-04-24T13:31:12.264Z,10.60
2019-04-24T13:36:22.209Z,9.70
2019-04-24T13:38:45.234Z,9.67
2019-04-24T13:43:59.819Z,9.90
2019-04-24T13:48:54.044Z,9.00
2019-04-24T13:53:56.688Z,9.70
2019-04-24T13:56:30.198Z,11.63
2019-04-24T13:58:51.138Z,10.37
2019-04-24T14:11:55.490Z,9.03
2019-04-24T14:12:26.713Z,10.80
2019-04-24T14:14:07.737Z,10.37
2019-04-24T14:16:30.199Z,14.60
2019-04-24T14:21:56.152Z,8.70
2019-04-24T14:27:01.268Z,10.60
2019-04-24T14:29:30.047Z,10.10
2019-04-24T14:32:08.307Z,13.43
2019-04-24T14:34:37.024Z,12.80
2019-04-24T14:37:05.118Z,14.73
2019-04-24T14:39:28.791Z,11.73
2019-04-24T14:47:34.743Z,15.50
2019-04-24T14:50:18.025Z,13.27
2019-04-24T14:52:34.828Z,12.30
2019-04-24T14:55:21.077Z,15.07
2019-04-24T14:57:38.747Z,11.37
2019-04-24T15:05:23.972Z,12.23
2019-04-24T15:07:57.619Z,13.27
2019-04-24T15:12:58.310Z,14.13
2019-04-24T15:20:44.076Z,15.63
2019-04-24T15:23:13.283Z,13.90
2019-04-24T15:25:58.785Z,15.53
2019-04-24T15:30:50.681Z,12.87
2019-04-24T15:33:27.466Z,13.27
2019-04-24T15:38:24.137Z,14.83
2019-04-24T15:41:08.119Z,15.67
2019-04-24T15:43:25.215Z,14.63
2019-04-24T15:45:59.244Z,15.20
2019-04-24T15:50:57.029Z,13.67
2019-04-24T15:53:03.396Z,14.00
2019-04-24T15:55:42.034Z,14.43
2019-04-24T15:58:20.143Z,13.33
2019-04-24T16:03:55.449Z,18.03
2019-04-24T16:06:08.310Z,14.97
2019-04-24T16:08:38.019Z,13.83
2019-04-24T16:11:08.012Z,16.60
2019-04-24T16:13:43.872Z,13.63
2019-04-24T16:16:39.638Z,12.53
2019-04-24T16:21:41.503Z,15.30
2019-04-24T16:26:45.272Z,17.93
2019-04-24T16:29:20.693Z,14.40
2019-04-24T16:32:09.019Z,14.83
2019-04-24T16:34:16.759Z,14.40
2019-04-24T16:36:56.395Z,16.80
2019-04-24T16:39:33.381Z,16.40
2019-04-24T16:42:25.909Z,14.23
2019-04-24T16:44:30.271Z,14.90
2019-04-24T16:47:11.637Z,15.70
2019-04-24T16:49:58.145Z,17.10
2019-04-24T16:52:10.686Z,16.00
2019-04-24T16:54:27.171Z,16.23
2019-04-24T16:57:35.396Z,13.47
2019-04-24T16:59:28.817Z,17.23
2019-04-24T17:04:56.684Z,13.90
2019-04-24T17:07:17.894Z,14.43
2019-04-24T17:12:19.528Z,16.93
2019-04-24T17:14:57.959Z,18.73
2019-04-24T17:20:27.187Z,16.83
2019-04-24T17:23:04.185Z,16.90
2019-04-24T17:25:29.983Z,18.20
2019-04-24T17:28:11.373Z,16.83
2019-04-24T17:30:41.108Z,16.67
2019-04-24T17:35:49.252Z,17.27
2019-04-24T17:37:37.420Z,18.37
2019-04-24T17:40:16.938Z,17.37
2019-04-24T17:43:07.098Z,16.67
2019-04-24T17:45:47.419Z,20.67
2019-04-24T17:50:43.327Z,18.77
2019-04-24T17:55:45.897Z,17.57
2019-04-24T17:58:01.116Z,21.40
2019-04-24T18:00:44.387Z,17.67
2019-04-24T18:03:16.268Z,16.03
2019-04-24T18:05:45.850Z,15.60
2019-04-24T18:08:15.275Z,18.70
2019-04-24T18:10:44.759Z,18.10
2019-04-24T18:13:14.568Z,17.80
2019-04-24T18:15:43.985Z,18.50
2019-04-24T18:18:13.373Z,14.90
2019-04-24T18:20:42.809Z,15.07
2019-04-24T18:23:13.468Z,18.17
2019-04-24T18:25:49.591Z,15.70
2019-04-24T18:28:19.023Z,15.43
2019-04-24T18:30:48.739Z,20.47
2019-04-24T18:33:18.350Z,18.13
2019-04-24T18:35:47.687Z,19.10
2019-04-24T18:38:18.311Z,19.87
2019-04-24T18:40:47.853Z,17.23
2019-04-24T18:43:17.238Z,24.17
2019-04-24T18:45:46.607Z,31.67
2019-04-24T18:48:15.923Z,23.63
2019-04-24T18:50:46.567Z,20.47
2019-04-24T18:53:16.018Z,17.80
2019-04-24T18:55:45.374Z,18.17
2019-04-24T18:58:15.824Z,21.77
2019-04-24T19:00:45.806Z,18.63
2019-04-24T19:03:16.311Z,22.43
2019-04-24T19:05:46.346Z,18.03
2019-04-24T19:08:16.120Z,20.30
2019-04-24T19:10:45.449Z,22.60
2019-04-24T19:13:17.717Z,18.73
2019-04-24T19:15:47.342Z,20.13
2019-04-24T19:18:16.799Z,22.23
2019-04-24T19:20:46.209Z,20.23
2019-04-24T19:23:15.931Z,20.20
2019-04-24T19:25:45.467Z,23.47
2019-04-24T19:28:16.931Z,19.27
2019-04-24T19:30:46.471Z,19.70
2019-04-24T19:33:16.207Z,21.17
2019-04-24T19:35:45.952Z,20.83
2019-04-24T19:38:15.314Z,24.40
2019-04-24T19:40:44.633Z,22.57
2019-04-24T19:43:16.569Z,22.17
2019-04-24T19:45:45.986Z,22.03
2019-04-24T19:48:15.407Z,20.03
2019-04-24T19:50:44.925Z,19.77
2019-04-24T19:53:20.440Z,20.37
2019-04-24T19:55:45.393Z,20.57
2019-04-24T19:58:15.823Z,19.37
2019-04-24T20:00:45.646Z,23.67
2019-04-24T20:03:16.200Z,21.07
2019-04-24T20:05:45.877Z,24.90
2019-04-24T20:08:16.229Z,21.57
2019-04-24T20:11:13.448Z,20.37
2019-04-24T20:13:42.876Z,21.27
2019-04-24T20:16:13.019Z,27.60
2019-04-24T20:18:42.615Z,31.87
2019-04-24T20:21:13.819Z,32.20
2019-04-24T20:23:43.420Z,33.47
2019-04-24T20:26:13.693Z,38.37
2019-04-24T20:28:43.202Z,31.53
2019-04-24T20:31:14.198Z,28.87
2019-04-24T20:33:46.186Z,31.37
2019-04-24T20:36:16.428Z,24.90
2019-04-24T20:38:47.397Z,27.70
2019-04-24T20:41:17.269Z,31.07
2019-04-24T20:43:46.760Z,26.07
2019-04-24T20:46:16.342Z,22.23
2019-04-24T20:48:45.886Z,22.37
2019-04-24T20:51:16.999Z,20.87
2019-04-24T20:53:51.659Z,22.13
2019-04-24T20:56:23.472Z,18.97
2019-04-24T20:58:56.138Z,17.33
2019-04-24T21:01:27.752Z,19.10
2019-04-24T21:03:57.813Z,19.10
2019-04-24T21:06:35.409Z,19.23
2019-04-24T21:09:26.194Z,19.57
2019-04-24T21:11:56.748Z,18.77
2019-04-24T21:14:26.750Z,20.10
2019-04-24T21:16:57.007Z,20.23
2019-04-24T21:19:27.182Z,19.60
2019-04-24T21:21:57.557Z,20.90
2019-04-24T21:24:28.343Z,22.17
2019-04-24T21:26:59.602Z,20.93
2019-04-24T21:29:29.459Z,23.03
2019-04-24T21:31:59.635Z,22.73
2019-04-24T21:34:29.765Z,22.40
2019-04-24T21:36:59.857Z,24.47
2019-04-24T21:39:31.029Z,23.53
2019-04-24T21:42:02.061Z,24.53
2019-04-24T21:44:32.832Z,24.40
2019-04-24T21:47:02.961Z,22.33
2019-04-24T21:49:32.700Z,19.57
2019-04-24T21:52:02.958Z,21.97
2019-04-24T21:54:33.321Z,22.07
2019-04-24T21:57:05.533Z,21.20
2019-04-24T21:59:35.012Z,21.83
2019-04-24T22:02:20.061Z,21.97
2019-04-24T22:04:53.038Z,22.40
2019-04-24T22:07:25.781Z,23.20
2019-04-24T22:09:55.250Z,22.67
2019-04-24T22:12:25.104Z,24.17
2019-04-24T22:14:55.233Z,22.60
2019-04-24T22:17:25.781Z,23.23
2019-04-24T22:19:55.869Z,21.83
2019-04-24T22:22:42.290Z,24.63
2019-04-24T22:25:30.953Z,21.67
2019-04-24T22:28:00.359Z,20.53
2019-04-24T22:30:41.898Z,21.57
2019-04-24T22:33:11.801Z,22.33
2019-04-24T22:35:42.869Z,21.80
2019-04-24T22:38:14.179Z,22.10
2019-04-24T22:40:52.409Z,20.60
2019-04-24T22:43:22.209Z,23.03
2019-04-24T22:45:51.843Z,22.10
2019-04-24T22:48:21.864Z,22.27
2019-04-24T22:50:52.194Z,22.00
2019-04-24T22:53:22.389Z,23.57
2019-04-24T22:55:52.524Z,18.87
2019-04-24T22:58:21.913Z,20.73
2019-04-24T23:00:51.895Z,18.73
2019-04-24T23:03:21.290Z,17.37
2019-04-24T23:05:51.524Z,19.70
2019-04-24T23:08:21.100Z,19.53
2019-04-24T23:10:53.819Z,21.13
2019-04-24T23:13:22.254Z,19.30
2019-04-24T23:15:51.728Z,17.93
2019-04-24T23:18:22.198Z,18.87
2019-04-24T23:20:59.284Z,20.07
2019-04-24T23:23:50.446Z,25.20
2019-04-24T23:26:27.683Z,21.67
2019-04-24T23:29:16.124Z,24.10
2019-04-24T23:32:13.448Z,23.07
2019-04-24T23:34:45.832Z,25.07
2019-04-24T23:37:15.090Z,21.03
2019-04-24T23:39:44.766Z,24.43
2019-04-24T23:42:14.274Z,20.57
2019-04-24T23:44:44.561Z,21.13
2019-04-24T23:47:14.006Z,20.20
2019-04-24T23:49:43.582Z,23.77
2019-04-24T23:52:12.981Z,20.00
2019-04-24T23:55:00.397Z,18.77
2019-04-24T23:57:13.796Z,18.70
2019-04-24T23:59:44.968Z,21.13
